createdAt,value
2018-02-09T00:01:06.209Z,72.52
2018-02-09T00:02:29.133Z,73.37
2018-02-09T00:03:55.864Z,74.13
2018-02-09T00:05:26.795Z,74.58
2018-02-09T00:06:49.563Z,75.25
2018-02-09T00:08:20.499Z,75.26
2018-02-09T00:09:47.760Z,76.07
2018-02-09T00:11:14.789Z,76.84
2018-02-09T00:12:41.762Z,77.45
2018-02-09T00:14:08.732Z,77.80
2018-02-09T00:15:35.607Z,78.24
2018-02-09T00:17:02.329Z,77.85
2018-02-09T00:18:29.185Z,77.76
2018-02-09T00:19:52.276Z,77.45
2018-02-09T00:21:19.031Z,76.72
2018-02-09T00:22:49.761Z,76.50
2018-02-09T00:24:16.811Z,75.26
2018-02-09T00:25:43.923Z,75.03
2018-02-09T00:27:06.710Z,74.76
2018-02-09T00:28:37.748Z,74.23
2018-02-09T00:30:04.651Z,74.25
2018-02-09T00:31:31.518Z,73.91
2018-02-09T00:32:58.516Z,73.01
2018-02-09T00:34:25.203Z,73.07
2018-02-09T00:35:52.182Z,73.32
2018-02-09T00:37:19.133Z,73.91
2018-02-09T00:38:41.989Z,74.37
2018-02-09T00:40:08.710Z,74.38
2018-02-09T00:41:35.632Z,74.61
2018-02-09T00:43:06.447Z,74.62
2018-02-09T00:44:33.574Z,74.58
2018-02-09T00:45:56.577Z,74.40
2018-02-09T00:47:27.542Z,74.34
2018-02-09T00:48:54.302Z,73.60
2018-02-09T00:50:21.275Z,72.84
2018-02-09T00:51:48.223Z,72.47
2018-02-09T00:53:15.025Z,72.18
2018-02-09T00:54:41.864Z,72.70
2018-02-09T00:56:08.766Z,73.86
2018-02-09T00:57:35.858Z,74.37
2018-02-09T00:59:02.759Z,75.17
2018-02-09T01:00:25.896Z,75.11
2018-02-09T01:01:56.624Z,74.83
2018-02-09T01:03:23.369Z,75.60
2018-02-09T01:04:50.353Z,75.78
2018-02-09T01:06:17.454Z,75.73
2018-02-09T01:07:44.577Z,75.14
2018-02-09T01:09:11.667Z,75.50
2018-02-09T01:10:38.382Z,75.11
2018-02-09T01:12:01.402Z,75.31
2018-02-09T01:13:32.472Z,74.84
2018-02-09T01:14:59.380Z,74.16
2018-02-09T01:16:26.166Z,73.28
2018-02-09T01:17:53.194Z,73.95
2018-02-09T01:19:16.193Z,73.60
2018-02-09T01:20:42.942Z,73.75
2018-02-09T01:22:13.598Z,73.86
2018-02-09T01:23:40.376Z,73.64
2018-02-09T01:25:07.383Z,74.05
2018-02-09T01:26:30.210Z,74.06
2018-02-09T01:27:57.062Z,73.56
2018-02-09T01:29:27.909Z,73.36
2018-02-09T01:30:54.696Z,73.65
2018-02-09T01:32:21.690Z,73.16
2018-02-09T01:33:48.489Z,73.20
2018-02-09T01:35:15.466Z,72.67
2018-02-09T01:36:42.441Z,72.50
2018-02-09T01:38:09.543Z,72.95
2018-02-09T01:39:32.651Z,72.66
2018-02-09T01:41:03.240Z,72.23
2018-02-09T01:42:30.292Z,72.65
2018-02-09T01:43:56.948Z,73.16
2018-02-09T01:45:23.743Z,73.31
2018-02-09T01:46:50.586Z,73.35
2018-02-09T01:48:17.597Z,73.42
2018-02-09T01:49:40.541Z,73.70
2018-02-09T01:51:11.445Z,73.52
2018-02-09T01:52:34.439Z,73.54
2018-02-09T01:54:05.249Z,73.39
2018-02-09T01:55:32.481Z,73.43
2018-02-09T01:56:59.491Z,73.22
2018-02-09T01:58:22.522Z,73.13
2018-02-09T01:59:53.586Z,72.13
2018-02-09T02:01:20.425Z,72.46
2018-02-09T02:02:47.368Z,73.08
2018-02-09T02:04:14.510Z,73.79
2018-02-09T02:05:37.569Z,74.05
2018-02-09T02:07:08.661Z,73.78
2018-02-09T02:08:35.506Z,74.46
2018-02-09T02:09:58.673Z,74.81
2018-02-09T02:11:29.542Z,75.55
2018-02-09T02:12:52.483Z,75.76
2018-02-09T02:14:23.247Z,75.94
2018-02-09T02:15:46.211Z,75.62
2018-02-09T02:17:17.145Z,75.63
2018-02-09T02:18:43.866Z,75.56
2018-02-09T02:20:10.844Z,75.00
2018-02-09T02:21:37.783Z,74.10
2018-02-09T02:23:00.864Z,74.19
2018-02-09T02:24:31.667Z,74.22
2018-02-09T02:25:58.673Z,73.70
2018-02-09T02:27:21.502Z,73.59
2018-02-09T02:28:48.320Z,73.02
2018-02-09T02:30:19.074Z,72.82
2018-02-09T02:31:42.098Z,72.92
2018-02-09T02:33:08.973Z,72.59
2018-02-09T02:34:39.870Z,73.09
2018-02-09T02:36:06.888Z,72.89
2018-02-09T02:37:33.659Z,73.75
2018-02-09T02:38:56.540Z,72.72
2018-02-09T02:40:27.115Z,72.57
2018-02-09T02:41:54.118Z,72.25
2018-02-09T02:43:21.062Z,72.28
2018-02-09T02:44:48.081Z,71.47
2018-02-09T02:46:11.183Z,71.77
2018-02-09T02:47:42.338Z,72.62
2018-02-09T02:49:05.254Z,72.73
2018-02-09T02:50:36.038Z,72.90
2018-02-09T02:52:02.840Z,73.62
2018-02-09T02:53:29.948Z,72.66
2018-02-09T02:54:56.702Z,73.01
2018-02-09T02:56:19.706Z,73.82
2018-02-09T02:57:46.689Z,73.90
2018-02-09T02:59:17.606Z,74.15
2018-02-09T03:00:40.584Z,73.75
2018-02-09T03:02:07.483Z,73.68
2018-02-09T03:03:34.611Z,74.00
2018-02-09T03:05:05.449Z,73.97
2018-02-09T03:06:32.438Z,73.64
2018-02-09T03:07:59.380Z,73.57
2018-02-09T03:09:26.451Z,73.89
2018-02-09T03:10:53.256Z,75.08
2018-02-09T03:12:16.395Z,76.00
2018-02-09T03:13:47.222Z,75.54
2018-02-09T03:15:14.215Z,75.76
2018-02-09T03:16:41.270Z,76.09
2018-02-09T03:18:08.247Z,76.16
2018-02-09T03:19:31.341Z,75.92
2018-02-09T03:21:02.409Z,76.07
2018-02-09T03:22:29.357Z,76.70
2018-02-09T03:23:56.373Z,76.97
2018-02-09T03:25:19.327Z,76.58
2018-02-09T03:26:46.090Z,76.86
2018-02-09T03:28:16.798Z,76.27
2018-02-09T03:29:43.453Z,75.42
2018-02-09T03:31:10.347Z,74.30
2018-02-09T03:32:37.252Z,74.30
2018-02-09T03:34:04.198Z,74.72
2018-02-09T03:35:31.220Z,74.50
2018-02-09T03:36:58.054Z,74.33
2018-02-09T03:38:20.946Z,73.96
2018-02-09T03:39:51.953Z,73.68
2018-02-09T03:41:18.889Z,73.43
2018-02-09T03:42:41.895Z,73.37
2018-02-09T03:44:12.896Z,72.72
2018-02-09T03:45:39.818Z,72.85
2018-02-09T03:47:02.710Z,72.72
2018-02-09T03:48:29.666Z,72.98
2018-02-09T03:49:56.685Z,73.13
2018-02-09T03:51:27.357Z,72.77
2018-02-09T03:52:54.281Z,72.04
2018-02-09T03:54:21.333Z,72.51
2018-02-09T03:55:44.198Z,72.26
2018-02-09T03:57:15.027Z,72.23
2018-02-09T03:58:41.917Z,72.63
2018-02-09T04:00:04.880Z,72.44
2018-02-09T04:01:31.831Z,72.03
2018-02-09T04:03:02.593Z,71.83
2018-02-09T04:04:29.404Z,71.60
2018-02-09T04:05:56.252Z,71.66
2018-02-09T04:07:19.139Z,71.70
2018-02-09T04:08:46.097Z,72.61
2018-02-09T04:10:16.905Z,72.13
2018-02-09T04:11:43.984Z,71.94
2018-02-09T04:13:10.970Z,72.02
2018-02-09T04:14:37.727Z,72.53
2018-02-09T04:16:04.693Z,72.60
2018-02-09T04:17:31.675Z,72.14
2018-02-09T04:18:58.631Z,72.23
2018-02-09T04:20:25.305Z,72.19
2018-02-09T04:21:52.124Z,72.41
2018-02-09T04:23:14.993Z,72.53
2018-02-09T04:24:41.920Z,72.65
2018-02-09T04:26:13.050Z,72.99
2018-02-09T04:27:40.078Z,72.44
2018-02-09T04:29:07.050Z,71.98
2018-02-09T04:30:33.888Z,72.07
2018-02-09T04:31:56.723Z,71.88
2018-02-09T04:33:23.639Z,72.25
2018-02-09T04:34:54.608Z,71.66
2018-02-09T04:36:21.574Z,72.79
2018-02-09T04:37:48.736Z,72.64
2018-02-09T04:39:15.775Z,72.73
2018-02-09T04:40:38.490Z,72.11
2018-02-09T04:42:05.537Z,72.22
2018-02-09T04:43:36.672Z,73.12
2018-02-09T04:45:03.530Z,72.26
2018-02-09T04:46:30.458Z,72.22
2018-02-09T04:47:57.404Z,72.11
2018-02-09T04:49:24.280Z,71.81
2018-02-09T04:50:51.474Z,71.32
2018-02-09T04:52:18.463Z,71.20
2018-02-09T04:53:41.656Z,70.97
2018-02-09T04:55:12.339Z,71.62
2018-02-09T04:56:39.445Z,72.06
2018-02-09T04:58:06.347Z,72.14
2018-02-09T04:59:33.193Z,71.74
2018-02-09T05:00:56.019Z,71.35
2018-02-09T05:02:28.061Z,72.11
2018-02-09T05:03:53.752Z,72.68
2018-02-09T05:05:20.797Z,73.00
2018-02-09T05:06:43.749Z,72.72
2018-02-09T05:08:14.589Z,73.18
2018-02-09T05:09:37.538Z,72.54
2018-02-09T05:11:04.539Z,72.37
2018-02-09T05:12:35.444Z,71.67
2018-02-09T05:13:58.392Z,72.73
2018-02-09T05:15:29.225Z,73.45
2018-02-09T05:16:55.955Z,74.49
2018-02-09T05:18:22.781Z,74.88
2018-02-09T05:19:49.623Z,75.09
2018-02-09T05:21:16.629Z,75.34
2018-02-09T05:22:43.606Z,75.49
2018-02-09T05:24:06.739Z,75.12
2018-02-09T05:25:33.836Z,74.58
2018-02-09T05:27:04.786Z,74.64
2018-02-09T05:28:31.800Z,74.28
2018-02-09T05:29:54.816Z,74.84
2018-02-09T05:31:21.723Z,74.94
2018-02-09T05:32:52.576Z,75.33
2018-02-09T05:34:15.680Z,75.57
2018-02-09T05:35:42.567Z,75.14
2018-02-09T05:37:13.488Z,75.42
2018-02-09T05:38:40.332Z,75.95
2018-02-09T05:40:03.279Z,75.20
2018-02-09T05:41:34.112Z,75.15
2018-02-09T05:43:02.159Z,74.82
2018-02-09T05:44:27.433Z,73.92
2018-02-09T05:45:54.294Z,73.29
2018-02-09T05:47:17.103Z,73.30
2018-02-09T05:48:43.942Z,73.38
2018-02-09T05:50:14.854Z,73.42
2018-02-09T05:51:41.649Z,73.41
2018-02-09T05:53:04.834Z,73.01
2018-02-09T05:54:35.825Z,72.64
2018-02-09T05:56:02.700Z,72.51
2018-02-09T05:57:25.883Z,72.45
2018-02-09T05:58:53.028Z,72.97
2018-02-09T06:00:23.862Z,73.41
2018-02-09T06:01:50.805Z,73.43
2018-02-09T06:03:17.569Z,73.12
2018-02-09T06:04:40.572Z,73.39
2018-02-09T06:06:11.511Z,73.55
2018-02-09T06:07:38.326Z,73.82
2018-02-09T06:09:01.235Z,74.12
2018-02-09T06:10:28.163Z,73.72
2018-02-09T06:11:59.011Z,73.88
2018-02-09T06:13:21.941Z,74.08
2018-02-09T06:14:48.849Z,74.25
2018-02-09T06:16:19.567Z,73.61
2018-02-09T06:17:46.588Z,73.06
2018-02-09T06:19:09.671Z,72.85
2018-02-09T06:20:40.580Z,72.83
2018-02-09T06:22:07.526Z,72.73
2018-02-09T06:23:30.427Z,72.64
2018-02-09T06:25:01.111Z,72.59
2018-02-09T06:26:24.022Z,73.02
2018-02-09T06:27:54.977Z,73.64
2018-02-09T06:29:22.038Z,74.00
2018-02-09T06:30:49.072Z,73.96
2018-02-09T06:32:12.088Z,73.59
2018-02-09T06:33:42.889Z,73.57
2018-02-09T06:35:05.914Z,73.67
2018-02-09T06:36:36.772Z,73.72
2018-02-09T06:38:03.706Z,73.80
2018-02-09T06:39:26.660Z,74.41
2018-02-09T06:40:53.540Z,74.50
2018-02-09T06:42:24.351Z,74.94
2018-02-09T06:43:51.326Z,75.55
2018-02-09T06:45:14.231Z,75.69
2018-02-09T06:46:45.107Z,75.78
2018-02-09T06:48:12.093Z,76.04
2018-02-09T06:49:35.196Z,76.24
2018-02-09T06:51:02.142Z,76.19
2018-02-09T06:52:33.185Z,76.05
2018-02-09T06:54:00.009Z,76.59
2018-02-09T06:55:26.872Z,76.08
2018-02-09T06:56:53.668Z,76.00
2018-02-09T06:58:20.793Z,75.50
2018-02-09T06:59:47.882Z,75.12
2018-02-09T07:01:10.949Z,75.74
2018-02-09T07:02:41.784Z,75.63
2018-02-09T07:04:04.843Z,76.04
2018-02-09T07:05:31.873Z,76.15
2018-02-09T07:07:02.567Z,76.41
2018-02-09T07:08:25.503Z,76.55
2018-02-09T07:09:52.646Z,76.88
2018-02-09T07:11:23.422Z,77.36
2018-02-09T07:12:51.399Z,77.75
2018-02-09T07:14:17.167Z,78.23
2018-02-09T07:15:43.993Z,78.96
2018-02-09T07:17:10.869Z,79.73
2018-02-09T07:18:37.860Z,79.78
2018-02-09T07:20:04.713Z,80.36
2018-02-09T07:21:27.697Z,80.90
2018-02-09T07:22:58.507Z,80.89
2018-02-09T07:24:21.588Z,81.05
2018-02-09T07:25:52.355Z,80.93
2018-02-09T07:27:19.397Z,80.88
2018-02-09T07:28:46.349Z,80.94
2018-02-09T07:30:13.289Z,80.91
2018-02-09T07:31:40.309Z,81.02
2018-02-09T07:33:02.915Z,81.15
2018-02-09T07:34:33.673Z,81.04
2018-02-09T07:35:56.525Z,80.96
2018-02-09T07:37:27.209Z,80.81
2018-02-09T07:38:53.949Z,80.51
2018-02-09T07:40:17.080Z,80.56
2018-02-09T07:41:47.874Z,80.27
2018-02-09T07:43:14.751Z,80.38
2018-02-09T07:44:41.512Z,80.03
2018-02-09T07:46:04.589Z,80.29
2018-02-09T07:47:31.522Z,80.29
2018-02-09T07:48:58.387Z,80.47
2018-02-09T07:50:29.319Z,80.49
2018-02-09T07:51:56.378Z,80.54
2018-02-09T07:53:19.109Z,80.33
2018-02-09T07:54:50.019Z,80.57
2018-02-09T07:56:17.003Z,80.63
2018-02-09T07:57:43.874Z,80.49
2018-02-09T07:59:10.706Z,80.42
2018-02-09T08:00:37.538Z,80.37
2018-02-09T08:02:00.564Z,80.37
2018-02-09T08:03:31.387Z,80.42
2018-02-09T08:04:58.087Z,80.49
2018-02-09T08:06:24.870Z,80.40
2018-02-09T08:07:51.786Z,80.53
2018-02-09T08:09:18.675Z,80.13
2018-02-09T08:10:45.693Z,80.26
2018-02-09T08:12:12.581Z,80.29
2018-02-09T08:13:39.551Z,79.90
2018-02-09T08:15:02.559Z,80.16
2018-02-09T08:16:29.409Z,79.77
2018-02-09T08:18:01.431Z,79.88
2018-02-09T08:19:27.282Z,79.79
2018-02-09T08:20:54.096Z,80.06
2018-02-09T08:22:16.983Z,79.76
2018-02-09T08:23:48.037Z,79.56
2018-02-09T08:25:15.030Z,79.86
2018-02-09T08:26:41.576Z,79.22
2018-02-09T08:28:04.513Z,79.59
2018-02-09T08:29:31.419Z,79.98
2018-02-09T08:31:02.448Z,79.54
2018-02-09T08:32:29.174Z,79.63
2018-02-09T08:33:55.950Z,79.02
2018-02-09T08:35:18.747Z,79.73
2018-02-09T08:36:45.501Z,80.08
2018-02-09T08:38:12.622Z,80.14
2018-02-09T08:39:43.388Z,79.59
2018-02-09T08:41:10.501Z,80.21
2018-02-09T08:42:37.430Z,80.63
2018-02-09T08:44:04.077Z,80.61
2018-02-09T08:45:31.053Z,80.85
2018-02-09T08:46:58.040Z,80.75
2018-02-09T08:48:24.702Z,81.19
2018-02-09T08:49:47.670Z,81.26
2018-02-09T08:51:14.673Z,81.51
2018-02-09T08:52:45.774Z,81.27
2018-02-09T08:54:12.558Z,80.85
2018-02-09T08:55:35.761Z,80.48
2018-02-09T08:57:02.662Z,80.72
2018-02-09T08:58:29.643Z,80.67
2018-02-09T09:00:00.581Z,80.45
2018-02-09T09:01:27.603Z,80.21
2018-02-09T09:02:50.585Z,79.84
2018-02-09T09:04:21.609Z,79.47
2018-02-09T09:05:44.495Z,79.57
2018-02-09T09:07:15.428Z,79.31
2018-02-09T09:08:42.540Z,79.93
2018-02-09T09:10:09.442Z,80.22
2018-02-09T09:11:36.463Z,80.53
2018-02-09T09:13:03.109Z,80.15
2018-02-09T09:14:26.230Z,80.22
2018-02-09T09:15:57.117Z,80.21
2018-02-09T09:17:24.060Z,80.47
2018-02-09T09:18:50.930Z,80.67
2018-02-09T09:20:18.107Z,80.86
2018-02-09T09:21:44.918Z,81.16
2018-02-09T09:23:11.575Z,80.92
2018-02-09T09:24:38.679Z,80.79
2018-02-09T09:26:05.556Z,80.43
2018-02-09T09:27:28.192Z,80.60
2018-02-09T09:28:59.381Z,80.74
2018-02-09T09:30:25.898Z,80.63
2018-02-09T09:31:52.676Z,80.43
2018-02-09T09:33:19.878Z,81.06
2018-02-09T09:34:46.860Z,81.11
2018-02-09T09:36:13.706Z,80.90
2018-02-09T09:37:40.726Z,81.37
2018-02-09T09:39:07.479Z,81.37
2018-02-09T09:40:30.566Z,80.98
2018-02-09T09:41:57.433Z,80.98
2018-02-09T09:43:28.296Z,80.98
2018-02-09T09:44:51.126Z,80.35
2018-02-09T09:46:22.044Z,80.11
2018-02-09T09:47:49.118Z,80.59
2018-02-09T09:49:16.422Z,80.61
2018-02-09T09:50:43.561Z,81.08
2018-02-09T09:52:06.440Z,81.01
2018-02-09T09:53:37.475Z,80.01
2018-02-09T09:55:04.400Z,80.43
2018-02-09T09:56:31.503Z,80.77
2018-02-09T09:57:54.559Z,81.42
2018-02-09T09:59:21.509Z,81.22
2018-02-09T10:00:52.519Z,81.22
2018-02-09T10:02:15.443Z,80.67
2018-02-09T10:03:46.838Z,79.36
2018-02-09T10:05:10.112Z,79.28
2018-02-09T10:06:41.217Z,79.17
2018-02-09T10:08:08.448Z,79.32
2018-02-09T10:09:35.389Z,79.04
2018-02-09T10:11:02.133Z,78.62
2018-02-09T10:12:25.256Z,78.30
2018-02-09T10:13:55.897Z,78.54
2018-02-09T10:15:22.735Z,78.27
2018-02-09T10:16:49.728Z,78.00
2018-02-09T10:18:16.643Z,77.77
2018-02-09T10:19:43.609Z,78.15
2018-02-09T10:21:06.299Z,78.17
2018-02-09T10:22:33.484Z,77.77
2018-02-09T10:24:04.105Z,77.95
2018-02-09T10:25:31.163Z,77.88
2018-02-09T10:26:58.290Z,77.90
2018-02-09T10:28:25.207Z,77.41
2018-02-09T10:29:52.427Z,76.41
2018-02-09T10:31:15.252Z,76.19
2018-02-09T10:32:46.288Z,76.87
2018-02-09T10:34:09.104Z,77.20
2018-02-09T10:35:36.336Z,76.50
2018-02-09T10:37:07.376Z,76.23
2018-02-09T10:38:34.556Z,76.77
2018-02-09T10:40:01.582Z,76.47
2018-02-09T10:41:28.642Z,76.31
2018-02-09T10:42:51.718Z,76.35
2018-02-09T10:44:22.141Z,75.56
2018-02-09T10:45:49.281Z,75.68
2018-02-09T10:47:12.225Z,76.52
2018-02-09T10:48:39.372Z,75.49
2018-02-09T10:50:10.210Z,74.98
2018-02-09T10:51:33.427Z,74.54
2018-02-09T10:53:04.324Z,74.62
2018-02-09T10:54:27.222Z,75.21
2018-02-09T10:55:58.346Z,75.39
2018-02-09T10:57:25.389Z,75.63
2018-02-09T10:58:52.218Z,74.13
2018-02-09T11:00:18.923Z,74.34
2018-02-09T11:01:42.142Z,74.49
2018-02-09T11:03:09.472Z,73.55
2018-02-09T11:04:40.620Z,73.96
2018-02-09T11:06:07.494Z,74.24
2018-02-09T11:07:30.724Z,73.28
2018-02-09T11:09:01.703Z,72.91
2018-02-09T11:10:28.670Z,73.42
2018-02-09T11:11:51.482Z,73.40
2018-02-09T11:13:18.725Z,72.69
2018-02-09T11:14:49.789Z,72.32
2018-02-09T11:16:16.676Z,71.77
2018-02-09T11:17:42.961Z,71.96
2018-02-09T11:19:06.646Z,71.38
2018-02-09T11:20:40.859Z,72.19
2018-02-09T11:22:00.813Z,71.38
2018-02-09T11:23:31.939Z,71.26
2018-02-09T11:24:58.848Z,71.03
2018-02-09T11:26:25.928Z,71.59
2018-02-09T11:27:52.885Z,69.23
2018-02-09T11:29:16.054Z,69.89
2018-02-09T11:30:47.414Z,71.36
2018-02-09T11:32:10.652Z,71.19
2018-02-09T11:33:41.544Z,70.22
2018-02-09T11:35:08.741Z,70.87
2018-02-09T11:36:35.771Z,70.53
2018-02-09T11:38:02.995Z,71.15
2018-02-09T11:39:30.159Z,70.53
2018-02-09T11:40:56.843Z,71.17
2018-02-09T11:42:19.825Z,71.83
2018-02-09T11:43:50.464Z,70.93
2018-02-09T11:45:17.374Z,71.19
2018-02-09T11:46:44.472Z,70.16
2018-02-09T11:48:11.615Z,70.14
2018-02-09T11:49:38.118Z,69.83
2018-02-09T11:51:00.716Z,69.59
2018-02-09T11:52:27.871Z,69.97
2018-02-09T11:53:58.604Z,68.21
2018-02-09T11:55:25.659Z,68.30
2018-02-09T11:56:52.797Z,67.77
2018-02-09T11:58:19.689Z,69.25
2018-02-09T11:59:46.744Z,70.20
2018-02-09T12:01:09.903Z,70.22
2018-02-09T12:02:40.823Z,68.56
2018-02-09T12:04:07.973Z,68.34
2018-02-09T12:05:35.128Z,68.18
2018-02-09T12:07:02.293Z,68.41
2018-02-09T12:08:25.463Z,68.04
2018-02-09T12:09:56.498Z,68.16
2018-02-09T12:11:18.980Z,67.93
2018-02-09T12:12:50.052Z,67.74
2018-02-09T12:14:17.243Z,67.62
2018-02-09T12:15:44.587Z,67.79
2018-02-09T12:17:06.878Z,68.58
2018-02-09T12:18:37.951Z,68.23
2018-02-09T12:20:04.968Z,67.85
2018-02-09T12:21:32.319Z,66.93
2018-02-09T12:22:55.211Z,67.23
2018-02-09T12:24:22.139Z,66.98
2018-02-09T12:25:49.093Z,66.83
2018-02-09T12:27:19.540Z,67.00
2018-02-09T12:28:46.570Z,66.88
2018-02-09T12:30:09.732Z,66.83
2018-02-09T12:31:40.924Z,66.97
2018-02-09T12:33:08.046Z,65.88
2018-02-09T12:34:31.043Z,65.62
2018-02-09T12:36:01.945Z,65.52
2018-02-09T12:37:28.917Z,64.68
2018-02-09T12:38:56.061Z,64.04
2018-02-09T12:40:23.026Z,64.62
2018-02-09T12:41:46.202Z,64.94
2018-02-09T12:43:17.289Z,64.69
2018-02-09T12:44:40.521Z,63.81
2018-02-09T12:46:11.565Z,63.50
2018-02-09T12:47:38.760Z,63.66
2018-02-09T12:49:06.188Z,62.83
2018-02-09T12:50:29.396Z,62.80
2018-02-09T12:51:56.387Z,61.99
2018-02-09T12:53:27.186Z,61.79
2018-02-09T12:54:54.219Z,62.04
2018-02-09T12:56:17.182Z,62.79
2018-02-09T12:57:44.355Z,62.96
2018-02-09T12:59:11.625Z,63.11
2018-02-09T13:00:42.507Z,62.88
2018-02-09T13:02:09.499Z,63.08
2018-02-09T13:03:35.911Z,63.37
2018-02-09T13:05:03.014Z,62.59
2018-02-09T13:06:30.186Z,63.11
2018-02-09T13:07:52.528Z,63.59
2018-02-09T13:09:19.455Z,61.57
2018-02-09T13:10:50.620Z,62.05
2018-02-09T13:12:13.724Z,61.71
2018-02-09T13:13:43.957Z,61.95
2018-02-09T13:15:07.082Z,62.53
2018-02-09T13:16:38.301Z,61.82
2018-02-09T13:18:05.577Z,62.49
2018-02-09T13:19:28.564Z,61.96
2018-02-09T13:20:55.506Z,62.49
2018-02-09T13:22:26.304Z,62.65
2018-02-09T13:23:53.292Z,62.17
2018-02-09T13:25:16.107Z,62.94
2018-02-09T13:26:43.048Z,62.18
2018-02-09T13:28:10.448Z,62.43
2018-02-09T13:29:41.388Z,62.48
2018-02-09T13:31:08.421Z,61.84
2018-02-09T13:32:35.443Z,62.23
2018-02-09T13:34:02.678Z,62.68
2018-02-09T13:35:25.730Z,62.09
2018-02-09T13:36:56.667Z,61.48
2018-02-09T13:38:19.850Z,61.53
2018-02-09T13:39:51.018Z,61.26
2018-02-09T13:41:14.168Z,61.57
2018-02-09T13:42:41.476Z,61.97
2018-02-09T13:44:08.324Z,62.04
2018-02-09T13:45:39.517Z,62.09
2018-02-09T13:47:02.348Z,61.68
2018-02-09T13:48:33.554Z,61.95
2018-02-09T13:49:56.824Z,62.07
2018-02-09T13:51:27.920Z,62.73
2018-02-09T13:52:51.052Z,62.48
2018-02-09T13:54:18.203Z,62.75
2018-02-09T13:55:45.469Z,61.98
2018-02-09T13:57:12.641Z,62.34
2018-02-09T13:58:43.804Z,62.56
2018-02-09T14:00:06.931Z,62.51
2018-02-09T14:01:38.255Z,61.89
2018-02-09T14:03:05.299Z,62.84
2018-02-09T14:04:32.317Z,62.99
2018-02-09T14:05:55.452Z,63.31
2018-02-09T14:07:22.504Z,62.75
2018-02-09T14:08:53.043Z,62.56
2018-02-09T14:10:20.192Z,62.54
2018-02-09T14:11:47.213Z,62.63
2018-02-09T14:13:10.291Z,62.99
2018-02-09T14:14:41.443Z,63.40
2018-02-09T14:16:08.463Z,63.41
2018-02-09T14:17:30.196Z,63.27
2018-02-09T14:18:57.160Z,63.54
2018-02-09T14:20:23.770Z,63.21
2018-02-09T14:21:54.910Z,63.25
2018-02-09T14:23:17.953Z,63.57
2018-02-09T14:24:45.149Z,63.64
2018-02-09T14:26:12.287Z,63.86
2018-02-09T14:27:39.388Z,64.08
2018-02-09T14:29:06.650Z,64.38
2018-02-09T14:30:37.682Z,64.79
2018-02-09T14:32:00.953Z,65.04
2018-02-09T14:33:31.754Z,65.06
2018-02-09T14:34:58.946Z,65.47
2018-02-09T14:36:21.902Z,65.35
2018-02-09T14:37:52.471Z,65.34
2018-02-09T14:39:15.173Z,65.58
2018-02-09T14:40:46.112Z,65.93
2018-02-09T14:42:12.645Z,66.18
2018-02-09T14:43:39.740Z,66.50
2018-02-09T14:45:03.011Z,66.25
2018-02-09T14:46:33.943Z,66.78
2018-02-09T14:47:56.856Z,67.41
2018-02-09T14:49:23.877Z,66.78
2018-02-09T14:50:54.755Z,66.36
2018-02-09T14:52:17.808Z,66.52
2018-02-09T14:53:44.922Z,66.42
2018-02-09T14:55:16.048Z,66.42
2018-02-09T14:56:43.170Z,66.49
2018-02-09T14:58:10.210Z,66.80
2018-02-09T14:59:33.299Z,67.06
2018-02-09T15:01:00.475Z,67.18
2018-02-09T15:02:31.388Z,67.09
2018-02-09T15:03:58.567Z,67.20
2018-02-09T15:05:25.547Z,67.52
2018-02-09T15:06:48.568Z,67.10
2018-02-09T15:08:15.341Z,67.27
2018-02-09T15:09:46.484Z,67.23
2018-02-09T15:11:13.758Z,67.59
2018-02-09T15:12:40.900Z,67.87
2018-02-09T15:14:08.039Z,68.09
2018-02-09T15:15:35.097Z,68.41
2018-02-09T15:16:58.112Z,68.26
2018-02-09T15:18:29.216Z,67.77
2018-02-09T15:19:56.139Z,68.17
2018-02-09T15:21:23.188Z,68.46
2018-02-09T15:22:50.103Z,68.71
2018-02-09T15:24:13.604Z,68.52
2018-02-09T15:25:44.132Z,68.48
2018-02-09T15:27:11.406Z,68.52
2018-02-09T15:28:37.721Z,68.44
2018-02-09T15:30:04.704Z,68.30
2018-02-09T15:31:31.389Z,68.68
2018-02-09T15:32:58.510Z,68.60
2018-02-09T15:34:25.298Z,68.69
2018-02-09T15:35:48.499Z,68.73
2018-02-09T15:37:19.565Z,68.90
2018-02-09T15:38:46.094Z,68.72
2018-02-09T15:40:12.355Z,68.75
2018-02-09T15:41:35.553Z,68.44
2018-02-09T15:43:06.724Z,68.36
2018-02-09T15:44:29.824Z,68.45
2018-02-09T15:45:56.731Z,68.42
2018-02-09T15:47:27.370Z,68.98
2018-02-09T15:48:54.264Z,68.75
2018-02-09T15:50:17.141Z,68.55
2018-02-09T15:51:44.141Z,68.56
2018-02-09T15:53:14.919Z,68.91
2018-02-09T15:54:41.562Z,68.87
2018-02-09T15:56:04.650Z,68.84
2018-02-09T15:57:35.807Z,69.13
2018-02-09T15:59:02.719Z,69.08
2018-02-09T16:00:29.425Z,69.10
2018-02-09T16:01:56.574Z,69.25
2018-02-09T16:03:19.337Z,69.23
2018-02-09T16:04:49.799Z,69.19
2018-02-09T16:06:13.034Z,69.27
2018-02-09T16:07:40.178Z,69.44
2018-02-09T16:09:11.170Z,69.60
2018-02-09T16:10:33.760Z,70.12
2018-02-09T16:12:04.754Z,70.30
2018-02-09T16:13:27.707Z,70.87
2018-02-09T16:14:54.609Z,70.91
2018-02-09T16:16:25.395Z,71.00
2018-02-09T16:17:52.163Z,71.06
2018-02-09T16:19:19.246Z,71.44
2018-02-09T16:20:46.377Z,71.73
2018-02-09T16:22:13.690Z,71.87
2018-02-09T16:23:37.062Z,72.26
2018-02-09T16:25:03.825Z,72.50
2018-02-09T16:26:34.438Z,72.76
2018-02-09T16:28:01.526Z,72.90
2018-02-09T16:29:28.711Z,73.16
2018-02-09T16:30:51.359Z,73.29
2018-02-09T16:32:22.451Z,73.41
2018-02-09T16:33:49.478Z,73.43
2018-02-09T16:35:12.697Z,73.50
2018-02-09T16:36:43.699Z,73.67
2018-02-09T16:38:10.876Z,73.69
2018-02-09T16:39:33.582Z,73.79
2018-02-09T16:41:04.657Z,73.81
2018-02-09T16:42:31.945Z,73.79
2018-02-09T16:43:59.130Z,73.97
2018-02-09T16:45:25.681Z,73.89
2018-02-09T16:46:52.341Z,73.87
2018-02-09T16:48:19.335Z,74.04
2018-02-09T16:49:42.546Z,74.02
2018-02-09T16:51:09.792Z,74.03
2018-02-09T16:52:40.863Z,74.08
2018-02-09T16:54:07.933Z,74.06
2018-02-09T16:55:34.963Z,74.13
2018-02-09T16:56:58.097Z,74.24
2018-02-09T16:58:24.568Z,74.38
2018-02-09T16:59:55.466Z,74.31
2018-02-09T17:01:22.710Z,74.18
2018-02-09T17:02:49.857Z,74.19
2018-02-09T17:04:17.980Z,74.23
2018-02-09T17:05:44.272Z,74.30
2018-02-09T17:07:11.326Z,74.28
2018-02-09T17:08:38.353Z,74.38
2018-02-09T17:10:05.265Z,74.25
2018-02-09T17:11:32.186Z,74.30
2018-02-09T17:12:55.214Z,74.29
2018-02-09T17:14:22.148Z,74.44
2018-02-09T17:15:53.274Z,74.29
2018-02-09T17:17:20.041Z,74.36
2018-02-09T17:18:43.154Z,74.35
2018-02-09T17:20:13.804Z,74.38
2018-02-09T17:21:40.870Z,74.48
2018-02-09T17:23:04.186Z,74.63
2018-02-09T17:24:31.358Z,74.60
2018-02-09T17:26:02.396Z,74.60
2018-02-09T17:27:29.384Z,74.71
2018-02-09T17:28:56.576Z,74.84
2018-02-09T17:30:23.102Z,75.01
2018-02-09T17:31:50.232Z,74.97
2018-02-09T17:33:16.830Z,75.08
2018-02-09T17:34:39.961Z,75.01
2018-02-09T17:36:07.103Z,75.06
2018-02-09T17:37:38.222Z,75.06
2018-02-09T17:39:05.477Z,75.20
2018-02-09T17:40:32.165Z,75.34
2018-02-09T17:41:59.180Z,75.31
2018-02-09T17:43:22.011Z,75.47
2018-02-09T17:44:48.637Z,75.26
2018-02-09T17:46:19.716Z,75.57
2018-02-09T17:47:46.677Z,75.50
2018-02-09T17:49:13.785Z,75.77
2018-02-09T17:50:37.081Z,75.86
2018-02-09T17:52:03.963Z,75.58
2018-02-09T17:53:35.010Z,75.56
2018-02-09T17:55:02.155Z,75.89
2018-02-09T17:56:29.165Z,75.86
2018-02-09T17:57:56.399Z,76.02
2018-02-09T17:59:23.370Z,76.23
2018-02-09T18:00:46.534Z,76.43
2018-02-09T18:02:17.683Z,76.33
2018-02-09T18:03:44.642Z,76.39
2018-02-09T18:05:07.481Z,76.71
2018-02-09T18:06:34.382Z,76.81
2018-02-09T18:08:05.416Z,76.94
2018-02-09T18:09:32.271Z,76.81
2018-02-09T18:10:59.191Z,76.71
2018-02-09T18:12:26.235Z,76.83
2018-02-09T18:13:53.195Z,76.99
2018-02-09T18:15:19.811Z,76.99
2018-02-09T18:16:42.983Z,76.89
2018-02-09T18:18:09.686Z,77.03
2018-02-09T18:19:40.543Z,76.87
2018-02-09T18:21:07.557Z,77.06
2018-02-09T18:22:34.916Z,77.29
2018-02-09T18:23:57.814Z,77.27
2018-02-09T18:25:25.054Z,77.36
2018-02-09T18:26:55.806Z,77.39
2018-02-09T18:28:22.328Z,77.34
2018-02-09T18:29:45.552Z,77.22
2018-02-09T18:31:16.373Z,77.25
2018-02-09T18:32:43.648Z,77.54
2018-02-09T18:34:10.535Z,77.29
2018-02-09T18:35:37.495Z,77.34
2018-02-09T18:37:04.695Z,77.53
2018-02-09T18:38:31.512Z,77.27
2018-02-09T18:39:54.495Z,77.00